Time;durP1;ratioP1;P1;durP2;ratioP2;P2;SDS_P1;SDS_P2;PMS_P1;PMS_P2;Temp;Humidity;BMP_temperature;BMP_pressure;BME280_temperature;BME280_humidity;BME280_pressure;Samples;Min_cycle;Max_cycle;Signal;HPM_P1;HPM_P2
2022/07/05 00:01:06;;;;;;;3.08;1.10;;;13.10;99.90;;;;;;5091870;28;20172;-60
2022/07/05 00:03:32;;;;;;;5.38;1.05;;;12.90;99.90;;;;;;5091836;28;20172;-60
2022/07/05 00:05:58;;;;;;;1.35;0.90;;;12.90;99.90;;;;;;5091746;28;20171;-60
2022/07/05 00:08:25;;;;;;;2.17;0.77;;;12.90;99.90;;;;;;5091848;28;20191;-60
2022/07/05 00:10:50;;;;;;;2.87;1.20;;;13.00;99.90;;;;;;5091801;28;20172;-60
2022/07/05 00:13:17;;;;;;;2.17;0.90;;;13.00;99.90;;;;;;5091614;28;20349;-61
2022/07/05 00:15:42;;;;;;;4.05;1.20;;;12.60;99.90;;;;;;5091615;28;20214;-60
2022/07/05 00:18:08;;;;;;;7.17;1.03;;;12.90;99.90;;;;;;5091572;28;20242;-60
2022/07/05 00:20:34;;;;;;;4.20;1.23;;;12.60;99.90;;;;;;5091567;28;20634;-60
2022/07/05 00:23:00;;;;;;;2.92;1.00;;;12.70;99.90;;;;;;5091581;28;20249;-60
2022/07/05 00:25:26;;;;;;;4.03;1.20;;;12.80;99.90;;;;;;5091539;28;20586;-61
2022/07/05 00:27:53;;;;;;;3.22;0.88;;;12.80;99.90;;;;;;5091392;28;20178;-61
2022/07/05 00:30:19;;;;;;;2.38;0.90;;;12.60;99.90;;;;;;5091379;28;20267;-61
2022/07/05 00:32:45;;;;;;;2.75;1.00;;;12.50;99.90;;;;;;5089947;28;20729;-60
2022/07/05 00:35:11;;;;;;;3.87;0.80;;;12.70;99.90;;;;;;5091509;28;20249;-60
2022/07/05 00:37:37;;;;;;;1.92;0.88;;;13.10;99.90;;;;;;5091496;28;20268;-60
2022/07/05 00:40:04;;;;;;;1.85;0.68;;;12.60;99.90;;;;;;5091299;28;20254;-61
2022/07/05 00:42:30;;;;;;;1.80;0.63;;;12.70;99.90;;;;;;5091180;28;20168;-61
2022/07/05 00:44:56;;;;;;;3.30;0.95;;;12.60;99.90;;;;;;5090919;28;20707;-60
2022/07/05 00:47:23;;;;;;;2.42;0.93;;;12.70;99.90;;;;;;5090988;28;20183;-60
2022/07/05 00:49:48;;;;;;;1.97;1.00;;;12.60;99.90;;;;;;5090927;28;20180;-60
2022/07/05 00:52:15;;;;;;;3.60;1.17;;;12.60;99.90;;;;;;5091039;28;20168;-60
2022/07/05 00:54:42;;;;;;;4.60;1.10;;;12.70;99.90;;;;;;5091106;28;20204;-59
2022/07/05 00:57:08;;;;;;;1.05;0.90;;;12.50;99.90;;;;;;5090696;28;20549;-60
2022/07/05 00:59:34;;;;;;;2.50;0.87;;;12.60;99.90;;;;;;5090969;28;20642;-59
2022/07/05 01:02:01;;;;;;;2.87;0.97;;;12.60;99.90;;;;;;5091101;28;20226;-60
2022/07/05 01:04:27;;;;;;;3.30;1.00;;;12.50;99.90;;;;;;5090926;28;20184;-60
2022/07/05 01:06:53;;;;;;;2.87;0.93;;;12.50;99.90;;;;;;5090901;28;20543;-60
2022/07/05 01:09:22;;;;;;;2.07;0.87;;;12.50;99.90;;;;;;5090901;28;20179;-60
2022/07/05 01:11:49;;;;;;;2.63;0.80;;;12.40;99.90;;;;;;5090892;28;20172;-60
2022/07/05 01:14:20;;;;;;;1.47;0.80;;;12.50;99.90;;;;;;5090787;28;20215;-60
2022/07/05 01:16:47;;;;;;;3.03;0.85;;;12.50;99.90;;;;;;5090843;28;20180;-60
2022/07/05 01:19:13;;;;;;;2.27;1.00;;;12.50;99.90;;;;;;5090870;28;20176;-60
2022/07/05 01:21:47;;;;;;;3.05;1.00;;;12.50;99.90;;;;;;5090886;28;20203;-60
2022/07/05 01:24:16;;;;;;;3.90;1.00;;;12.50;99.90;;;;;;5090785;28;20641;-60
2022/07/05 01:26:45;;;;;;;2.47;0.80;;;12.40;99.90;;;;;;5090820;28;20642;-59
2022/07/05 01:29:11;;;;;;;1.63;1.00;;;12.40;99.90;;;;;;5090692;28;20179;-60
2022/07/05 01:31:38;;;;;;;1.80;0.83;;;12.10;99.90;;;;;;5090835;28;20164;-60
2022/07/05 01:34:05;;;;;;;5.70;1.00;;;12.00;99.90;;;;;;5090411;28;20226;-59
2022/07/05 01:36:32;;;;;;;2.57;0.80;;;12.10;99.90;;;;;;5089462;28;20218;-59
2022/07/05 01:38:59;;;;;;;2.17;0.93;;;12.00;99.90;;;;;;5090857;28;20178;-59
2022/07/05 01:41:25;;;;;;;3.30;1.00;;;11.90;99.90;;;;;;5090600;28;20717;-59
2022/07/05 01:43:51;;;;;;;3.70;1.13;;;12.00;99.90;;;;;;5089439;28;20271;-59
2022/07/05 01:46:21;;;;;;;8.63;1.13;;;11.70;99.90;;;;;;5090506;28;20199;-59
2022/07/05 01:48:49;;;;;;;7.03;1.15;;;12.00;99.90;;;;;;5090763;28;20164;-59
2022/07/05 01:51:25;;;;;;;2.93;0.80;;;12.20;99.90;;;;;;5090643;28;20642;-58
2022/07/05 01:53:53;;;;;;;1.27;0.80;;;11.90;99.90;;;;;;5090480;28;20320;-58
2022/07/05 01:56:18;;;;;;;2.57;0.93;;;11.70;99.90;;;;;;5090515;28;20177;-59
2022/07/05 01:58:45;;;;;;;1.70;0.90;;;11.70;99.90;;;;;;5090663;28;20179;-59
2022/07/05 02:01:12;;;;;;;1.97;0.80;;;11.80;99.90;;;;;;5090474;28;20200;-59
2022/07/05 02:03:40;;;;;;;2.60;0.90;;;11.70;99.90;;;;;;5090378;28;20173;-59
2022/07/05 02:06:08;;;;;;;1.47;1.03;;;11.80;99.90;;;;;;5090486;28;20172;-59
2022/07/05 02:08:34;;;;;;;1.00;0.90;;;11.80;99.90;;;;;;5091497;28;20180;-59
2022/07/05 02:11:00;;;;;;;2.10;1.00;;;11.90;99.90;;;;;;5094071;28;20263;-59
2022/07/05 02:13:25;;;;;;;4.80;0.80;;;12.00;99.90;;;;;;5093877;28;20215;-59
2022/07/05 02:15:51;;;;;;;4.27;0.80;;;12.20;99.90;;;;;;5093808;28;20178;-58
2022/07/05 02:18:17;;;;;;;2.70;0.90;;;11.90;99.90;;;;;;5093769;28;20176;-59
2022/07/05 02:20:43;;;;;;;2.53;1.00;;;;;;;;;;5093809;28;20168;-60
2022/07/05 02:23:09;;;;;;;1.63;1.00;;;11.60;99.90;;;;;;5093783;28;20650;-59
2022/07/05 02:25:35;;;;;;;2.57;1.00;;;11.80;99.90;;;;;;5093733;28;20176;-59
2022/07/05 02:28:01;;;;;;;3.50;1.60;;;11.40;99.90;;;;;;5093566;28;20476;-59
2022/07/05 02:30:28;;;;;;;5.60;1.50;;;11.60;99.90;;;;;;5093534;28;20259;-59
2022/07/05 02:32:53;;;;;;;1.67;0.97;;;11.50;99.90;;;;;;5092231;28;20210;-59
2022/07/05 02:35:19;;;;;;;3.77;1.30;;;11.60;99.90;;;;;;5093312;28;20219;-59
2022/07/05 02:37:45;;;;;;;3.30;1.10;;;11.50;99.90;;;;;;5093402;28;20175;-59
2022/07/05 02:40:13;;;;;;;4.10;1.40;;;11.50;99.90;;;;;;5093248;28;20172;-59
2022/07/05 02:42:39;;;;;;;4.03;1.53;;;11.70;99.90;;;;;;5093597;28;20222;-59
2022/07/05 02:45:06;;;;;;;4.53;1.37;;;11.50;99.90;;;;;;5093374;28;20176;-59
2022/07/05 02:47:33;;;;;;;3.67;1.20;;;11.50;99.90;;;;;;5093373;28;20670;-59
2022/07/05 02:50:04;;;;;;;3.33;1.47;;;11.40;99.90;;;;;;5093321;28;20172;-59
2022/07/05 02:52:30;;;;;;;2.70;1.10;;;16.60;99.90;;;;;;5092988;28;20168;-59
2022/07/05 02:54:56;;;;;;;3.57;1.00;;;11.60;99.90;;;;;;5093125;28;20695;-59
2022/07/05 02:57:21;;;;;;;2.37;1.23;;;11.50;99.90;;;;;;5093023;28;20588;-59
2022/07/05 02:59:47;;;;;;;7.03;1.17;;;11.40;99.90;;;;;;5092978;28;20665;-59
2022/07/05 03:02:13;;;;;;;3.33;1.17;;;11.40;99.90;;;;;;5093003;28;20168;-58
2022/07/05 03:04:39;;;;;;;5.00;1.10;;;11.40;99.90;;;;;;5092819;28;20173;-59
2022/07/05 03:07:04;;;;;;;5.50;1.00;;;11.40;99.90;;;;;;5092923;28;20176;-60
2022/07/05 03:09:30;;;;;;;1.47;1.00;;;11.50;99.90;;;;;;5092896;28;20176;-59
2022/07/05 03:11:56;;;;;;;3.80;1.23;;;11.50;99.90;;;;;;5092884;28;20167;-59
2022/07/05 03:14:22;;;;;;;6.10;1.30;;;11.40;99.90;;;;;;5092810;28;20298;-59
2022/07/05 03:16:48;;;;;;;4.00;1.07;;;11.40;99.90;;;;;;5092706;28;20202;-59
2022/07/05 03:19:13;;;;;;;2.87;1.50;;;11.30;99.90;;;;;;5092362;28;20259;-59
2022/07/05 03:21:39;;;;;;;5.27;1.20;;;11.30;99.90;;;;;;5092660;28;20266;-59
2022/07/05 03:24:05;;;;;;;3.17;1.07;;;11.30;99.90;;;;;;5092526;28;20224;-59
2022/07/05 03:26:30;;;;;;;3.10;1.20;;;11.30;99.90;;;;;;5092650;28;20168;-59
2022/07/05 03:28:56;;;;;;;3.43;0.80;;;11.30;99.90;;;;;;5092477;28;20187;-59
2022/07/05 03:31:22;;;;;;;3.17;1.10;;;11.30;99.90;;;;;;5091262;28;20172;-59
2022/07/05 03:33:48;;;;;;;5.13;1.10;;;11.20;99.90;;;;;;5092346;28;20219;-59
2022/07/05 03:36:13;;;;;;;1.23;0.90;;;11.20;99.90;;;;;;5092032;28;20223;-59
2022/07/05 03:38:39;;;;;;;1.63;1.00;;;11.20;99.90;;;;;;5092182;28;20184;-59
2022/07/05 03:41:05;;;;;;;6.40;1.63;;;11.20;99.90;;;;;;5092271;28;20521;-59
2022/07/05 03:43:31;;;;;;;1.43;1.00;;;11.20;99.90;;;;;;5092184;28;20180;-59
2022/07/05 03:45:56;;;;;;;5.20;1.00;;;11.20;99.90;;;;;;5092242;28;20175;-59
2022/07/05 03:48:22;;;;;;;3.47;1.20;;;11.10;99.90;;;;;;5092108;28;20537;-59
2022/07/05 03:50:48;;;;;;;10.17;1.30;;;10.90;99.90;;;;;;5092081;28;20179;-59
2022/07/05 03:53:15;;;;;;;2.20;1.30;;;11.10;99.90;;;;;;5091984;28;20199;-59
2022/07/05 03:55:41;;;;;;;1.07;0.80;;;11.10;99.90;;;;;;5092072;28;20168;-59
2022/07/05 03:58:06;;;;;;;5.30;0.93;;;11.00;99.90;;;;;;5092056;28;20658;-59
2022/07/05 04:00:33;;;;;;;4.37;0.97;;;11.00;99.90;;;;;;5092028;28;20183;-59
2022/07/05 04:02:59;;;;;;;4.30;1.10;;;11.00;99.90;;;;;;5090738;28;20168;-59
2022/07/05 04:05:25;;;;;;;2.10;1.03;;;11.10;99.90;;;;;;5091669;28;20194;-59
2022/07/05 04:07:53;;;;;;;6.50;1.27;;;11.10;99.90;;;;;;5091843;28;20205;-60
2022/07/05 04:10:19;;;;;;;1.80;1.10;;;11.20;99.90;;;;;;5091826;28;20164;-59
2022/07/05 04:12:45;;;;;;;3.13;1.00;;;11.30;99.90;;;;;;5091472;28;20245;-59
2022/07/05 04:15:11;;;;;;;4.23;1.00;;;11.70;99.90;;;;;;5092008;28;20175;-59
2022/07/05 04:17:53;;;;;;;3.90;1.30;;;11.50;99.90;;;;;;5091614;28;20192;-60
2022/07/05 04:20:24;;;;;;;2.90;0.90;;;11.70;99.90;;;;;;5091817;28;20175;-59
2022/07/05 04:22:50;;;;;;;3.47;1.30;;;11.80;99.90;;;;;;5091471;28;20246;-59
2022/07/05 04:25:16;;;;;;;2.43;1.00;;;11.70;99.90;;;;;;5091457;28;20183;-60
2022/07/05 04:27:53;;;;;;;6.07;1.43;;;11.70;99.90;;;;;;5091556;28;20213;-59
2022/07/05 04:30:21;;;;;;;2.40;1.30;;;11.60;99.90;;;;;;5091204;28;20638;-59
2022/07/05 04:32:47;;;;;;;2.47;1.17;;;11.60;99.90;;;;;;5090978;28;20168;-59
2022/07/05 04:35:13;;;;;;;3.83;1.07;;;11.60;99.90;;;;;;5091242;28;20223;-59
2022/07/05 04:37:39;;;;;;;5.47;1.40;;;11.80;99.90;;;;;;5091304;28;20217;-59
2022/07/05 04:40:07;;;;;;;6.13;1.27;;;11.70;99.90;;;;;;5091136;28;20658;-59
2022/07/05 04:42:33;;;;;;;10.40;1.30;;;11.70;99.90;;;;;;5091161;28;20172;-59
2022/07/05 04:44:59;;;;;;;3.63;1.20;;;11.90;99.90;;;;;;5091120;28;20255;-59
2022/07/05 04:47:27;;;;;;;4.57;1.40;;;11.80;99.90;;;;;;5091235;28;20167;-59
2022/07/05 04:49:53;;;;;;;3.17;1.10;;;11.90;99.90;;;;;;5091026;28;20195;-59
2022/07/05 04:52:19;;;;;;;3.30;1.10;;;12.00;99.90;;;;;;5091139;28;20194;-59
2022/07/05 04:54:45;;;;;;;4.33;1.33;;;12.10;99.90;;;;;;5091059;28;20204;-59
2022/07/05 04:57:11;;;;;;;2.93;1.70;;;12.10;99.90;;;;;;5091109;28;20620;-59
2022/07/05 04:59:37;;;;;;;3.10;1.03;;;12.20;99.90;;;;;;5090875;28;20274;-59
2022/07/05 05:02:03;;;;;;;2.23;1.30;;;12.30;99.90;;;;;;5090983;28;20172;-59
2022/07/05 05:04:28;;;;;;;2.73;1.50;;;12.40;99.90;;;;;;5091126;28;20186;-59
2022/07/05 05:06:54;;;;;;;2.77;1.20;;;12.50;99.90;;;;;;5090989;28;20654;-59
2022/07/05 05:09:20;;;;;;;3.60;1.13;;;12.60;99.90;;;;;;5090915;28;20176;-59
2022/07/05 05:11:47;;;;;;;3.13;1.10;;;12.70;99.90;;;;;;5090920;28;20236;-59
2022/07/05 05:14:13;;;;;;;7.75;1.27;;;12.90;99.90;;;;;;5090825;28;20277;-59
2022/07/05 05:16:39;;;;;;;5.27;1.20;;;13.10;99.90;;;;;;5090958;28;20160;-59
2022/07/05 05:19:05;;;;;;;5.22;1.35;;;13.10;99.90;;;;;;5090991;28;20171;-59
2022/07/05 05:21:30;;;;;;;5.78;1.20;;;13.30;99.90;;;;;;5090839;28;20599;-59
2022/07/05 05:23:56;;;;;;;5.40;1.17;;;13.40;99.90;;;;;;5090830;28;20199;-62
2022/07/05 05:26:22;;;;;;;4.22;1.20;;;13.50;99.90;;;;;;5090836;28;20485;-59
2022/07/05 05:28:48;;;;;;;2.05;1.00;;;13.50;99.90;;;;;;5090777;28;20172;-59
2022/07/05 05:31:13;;;;;;;2.53;0.90;;;13.60;99.90;;;;;;5091250;28;20626;-59
2022/07/05 05:33:39;;;;;;;3.00;1.10;;;13.70;99.90;;;;;;5091230;28;20200;-59
2022/07/05 05:36:05;;;;;;;2.50;1.00;;;13.60;99.90;;;;;;5091050;28;20261;-59
2022/07/05 05:38:31;;;;;;;2.10;1.15;;;13.70;99.90;;;;;;5091374;28;20187;-59
2022/07/05 05:40:57;;;;;;;4.20;1.10;;;13.70;99.90;;;;;;5091310;28;20168;-59
2022/07/05 05:43:23;;;;;;;4.97;1.13;;;13.70;99.90;;;;;;5094274;28;20237;-59
2022/07/05 05:45:49;;;;;;;5.97;1.58;;;13.80;99.90;;;;;;5093986;28;20299;-59
2022/07/05 05:48:15;;;;;;;5.47;1.30;;;13.80;99.90;;;;;;5095372;28;20251;-59
2022/07/05 05:50:41;;;;;;;6.95;1.33;;;14.70;99.90;;;;;;5094635;28;20164;-61
2022/07/05 05:53:07;;;;;;;4.13;1.27;;;13.70;99.90;;;;;;5094307;28;20199;-59
2022/07/05 05:55:33;;;;;;;3.25;1.30;;;13.90;99.90;;;;;;5094359;28;20168;-59
2022/07/05 05:58:23;;;;;;;1.40;0.95;;;13.90;99.90;;;;;;5094460;28;20168;-59
2022/07/05 06:00:53;;;;;;;3.83;1.20;;;14.00;99.90;;;;;;5094499;28;20191;-60
2022/07/05 06:03:20;;;;;;;2.63;0.93;;;14.00;99.90;;;;;;5094348;28;20176;-60
2022/07/05 06:05:46;;;;;;;4.00;1.17;;;14.00;99.90;;;;;;5093957;28;20584;-60
2022/07/05 06:08:12;;;;;;;6.05;1.55;;;13.90;99.90;;;;;;5092682;28;20239;-60
2022/07/05 06:10:39;;;;;;;6.43;1.23;;;14.20;99.90;;;;;;5093891;28;20215;-59
2022/07/05 06:13:06;;;;;;;3.42;1.30;;;14.20;99.90;;;;;;5093925;28;20206;-60
2022/07/05 06:15:33;;;;;;;5.70;1.15;;;14.30;99.90;;;;;;5093951;28;20222;-59
2022/07/05 06:17:59;;;;;;;6.57;1.30;;;14.30;99.90;;;;;;5093784;28;20176;-59
2022/07/05 06:20:28;;;;;;;3.33;1.10;;;14.40;99.90;;;;;;5093793;28;20634;-60
2022/07/05 06:22:55;;;;;;;5.03;1.20;;;14.40;99.90;;;;;;5093598;28;20168;-60
2022/07/05 06:25:21;;;;;;;5.43;1.05;;;14.40;99.90;;;;;;5093939;28;20160;-59
2022/07/05 06:27:53;;;;;;;5.00;1.10;;;14.50;99.90;;;;;;5093622;28;20168;-60
2022/07/05 06:30:20;;;;;;;6.63;1.33;;;14.60;99.90;;;;;;5093712;28;20179;-59
2022/07/05 06:32:47;;;;;;;5.88;1.35;;;14.60;99.90;;;;;;5093380;28;20176;-60
2022/07/05 06:35:14;;;;;;;9.48;1.55;;;14.60;99.90;;;;;;5093080;28;20352;-59
2022/07/05 06:37:42;;;;;;;5.20;1.30;;;14.70;99.90;;;;;;5093259;28;20669;-59
2022/07/05 06:40:10;;;;;;;5.05;1.45;;;14.70;99.90;;;;;;5093086;28;20239;-59
2022/07/05 06:42:36;;;;;;;4.18;1.38;;;14.80;99.90;;;;;;5093116;28;20164;-60
2022/07/05 06:45:01;;;;;;;4.80;1.20;;;14.80;99.90;;;;;;5092867;28;20659;-59
2022/07/05 06:47:27;;;;;;;6.75;1.50;;;14.90;99.90;;;;;;5093000;28;20198;-60
2022/07/05 06:49:53;;;;;;;5.53;1.52;;;15.00;99.90;;;;;;5093007;28;20218;-59
2022/07/05 06:52:19;;;;;;;4.63;1.35;;;;;;;;;;5092875;28;20187;-59
2022/07/05 06:54:45;;;;;;;2.55;1.02;;;15.10;99.90;;;;;;5091864;28;20210;-59
2022/07/05 06:57:10;;;;;;;4.47;1.38;;;15.10;99.90;;;;;;5092981;28;20168;-59
2022/07/05 06:59:36;;;;;;;6.80;1.33;;;15.20;99.90;;;;;;5092682;28;20688;-59
2022/07/05 07:02:03;;;;;;;5.45;1.15;;;15.40;99.90;;;;;;5092607;28;20225;-59
2022/07/05 07:04:28;;;;;;;7.05;1.30;;;15.40;99.90;;;;;;5092623;28;20171;-59
2022/07/05 07:06:54;;;;;;;6.57;1.50;;;15.40;99.90;;;;;;5092771;28;20172;-60
2022/07/05 07:09:23;;;;;;;10.63;4.15;;;15.50;99.90;;;;;;5092699;28;20176;-60
2022/07/05 07:11:49;;;;;;;10.90;1.58;;;15.50;99.90;;;;;;5092679;28;20164;-59
2022/07/05 07:14:16;;;;;;;5.22;1.27;;;15.50;99.90;;;;;;5092323;28;20208;-60
2022/07/05 07:16:42;;;;;;;3.88;1.27;;;15.70;99.90;;;;;;5092550;28;20204;-60
2022/07/05 07:19:08;;;;;;;4.97;1.30;;;15.70;99.90;;;;;;5092661;28;20521;-59
2022/07/05 07:21:34;;;;;;;7.28;1.48;;;15.90;99.90;;;;;;5092130;28;20242;-59
2022/07/05 07:24:00;;;;;;;5.53;1.30;;;15.80;99.90;;;;;;5092245;28;20203;-60
2022/07/05 07:26:26;;;;;;;4.18;1.60;;;15.80;99.90;;;;;;5092698;28;20255;-60
2022/07/05 07:28:52;;;;;;;6.38;1.63;;;15.90;99.90;;;;;;5092239;28;20711;-60
2022/07/05 07:31:18;;;;;;;7.35;1.27;;;16.00;99.90;;;;;;5092406;28;20172;-60
2022/07/05 07:33:43;;;;;;;4.22;1.48;;;16.10;99.90;;;;;;5091826;28;20693;-61
2022/07/05 07:36:09;;;;;;;8.00;1.30;;;16.20;99.90;;;;;;5091945;28;20216;-60
2022/07/05 07:38:35;;;;;;;5.18;1.70;;;16.30;99.90;;;;;;5092107;28;20176;-61
2022/07/05 07:41:01;;;;;;;4.45;1.20;;;16.50;99.90;;;;;;5092057;28;20172;-61
2022/07/05 07:43:27;;;;;;;5.07;1.33;;;16.60;99.90;;;;;;5091921;28;20191;-61
2022/07/05 07:45:53;;;;;;;4.65;1.40;;;16.80;99.90;;;;;;5091921;28;20195;-61
2022/07/05 07:48:20;;;;;;;7.10;1.88;;;16.90;99.90;;;;;;5091704;28;20207;-61
2022/07/05 07:50:45;;;;;;;7.68;1.85;;;17.00;99.90;;;;;;5091939;28;20175;-61
2022/07/05 07:53:11;;;;;;;11.45;1.65;;;17.20;99.90;;;;;;5090328;28;20203;-61
2022/07/05 07:55:37;;;;;;;7.80;1.38;;;17.40;99.90;;;;;;5092093;28;20344;-61
2022/07/05 07:58:03;;;;;;;4.90;1.30;;;17.60;99.90;;;;;;5091688;28;20179;-61
2022/07/05 08:00:30;;;;;;;5.28;1.20;;;17.60;99.90;;;;;;5091678;28;20206;-61
2022/07/05 08:02:55;;;;;;;7.53;1.20;;;17.70;99.90;;;;;;5091524;28;20191;-61
2022/07/05 08:05:21;;;;;;;5.00;1.48;;;17.70;99.90;;;;;;5091771;28;20639;-61
2022/07/05 08:07:47;;;;;;;4.57;1.15;;;17.70;99.90;;;;;;5091557;28;20176;-61
2022/07/05 08:10:13;;;;;;;5.53;1.27;;;17.70;99.90;;;;;;5091703;28;20170;-59
2022/07/05 08:12:38;;;;;;;8.25;1.77;;;18.10;99.90;;;;;;5091400;28;20563;-61
2022/07/05 08:15:07;;;;;;;6.82;1.10;;;18.10;99.90;;;;;;5091467;28;20199;-60
2022/07/05 08:17:33;;;;;;;6.97;1.48;;;18.30;99.90;;;;;;5091293;28;20224;-60
2022/07/05 08:22:43;;;;;;;5.90;1.45;;;18.10;99.90;;;;;;5091584;28;20203;-60
2022/07/05 08:25:09;;;;;;;7.82;1.27;;;18.20;99.90;;;;;;5091294;28;20203;-60
2022/07/05 08:27:35;;;;;;;5.03;1.45;;;18.30;99.90;;;;;;5091239;28;20182;-60
2022/07/05 08:30:01;;;;;;;7.82;1.40;;;18.60;99.90;;;;;;5091264;28;20254;-61
2022/07/05 08:32:26;;;;;;;7.40;1.20;;;19.00;99.90;;;;;;5090958;28;20582;-59
2022/07/05 08:34:53;;;;;;;6.00;1.08;;;19.00;99.90;;;;;;5090772;28;20234;-59
2022/07/05 08:37:20;;;;;;;6.32;1.10;;;19.10;99.90;;;;;;5091247;28;20497;-60
2022/07/05 08:39:46;;;;;;;5.55;1.65;;;19.40;99.90;;;;;;5090866;28;20267;-61
2022/07/05 08:42:12;;;;;;;6.60;1.40;;;19.50;99.90;;;;;;5090938;28;20623;-60
2022/07/05 08:44:40;;;;;;;3.33;1.10;;;19.50;99.90;;;;;;5090856;28;20530;-59
2022/07/05 08:47:10;;;;;;;4.53;1.13;;;19.70;99.90;;;;;;5091167;28;20582;-59
2022/07/05 08:49:38;;;;;;;4.13;1.30;;;19.70;99.90;;;;;;5090905;28;20654;-59
2022/07/05 08:52:06;;;;;;;5.55;1.52;;;20.10;99.90;;;;;;5090998;28;20183;-60
2022/07/05 08:54:33;;;;;;;7.15;1.30;;;20.30;99.90;;;;;;5090775;28;20207;-60
2022/07/05 08:56:59;;;;;;;7.53;1.38;;;20.20;99.90;;;;;;5090870;28;20172;-61
2022/07/05 08:59:24;;;;;;;5.90;1.52;;;20.20;99.90;;;;;;5090821;28;20164;-61
2022/07/05 09:01:50;;;;;;;4.32;1.42;;;20.10;99.90;;;;;;5089682;28;20555;-61
2022/07/05 09:04:17;;;;;;;7.50;1.65;;;20.00;99.90;;;;;;5089702;28;20642;-61
2022/07/05 09:06:46;;;;;;;7.78;1.63;;;20.00;99.90;;;;;;5090902;28;20646;-61
2022/07/05 09:09:13;;;;;;;4.82;1.45;;;20.20;99.90;;;;;;5090965;28;20210;-61
2022/07/05 09:11:41;;;;;;;4.30;1.30;;;20.40;99.90;;;;;;5090852;28;20767;-61
2022/07/05 09:14:22;;;;;;;4.00;1.10;;;20.50;99.90;;;;;;5090730;28;20689;-61
2022/07/05 09:16:48;;;;;;;9.55;2.10;;;20.30;99.90;;;;;;5089427;28;20178;-61
2022/07/05 09:19:14;;;;;;;5.00;1.70;;;20.30;99.90;;;;;;5095014;28;20229;-60
2022/07/05 09:21:40;;;;;;;6.20;1.55;;;20.20;99.90;;;;;;5094738;28;20163;-60
2022/07/05 09:24:09;;;;;;;5.50;1.45;;;20.30;99.90;;;;;;5094732;28;20256;-60
2022/07/05 09:26:35;;;;;;;9.13;1.77;;;20.10;99.90;;;;;;5094746;28;20168;-60
2022/07/05 09:29:03;;;;;;;6.78;1.75;;;20.10;99.90;;;;;;5094740;28;20176;-60
2022/07/05 09:31:36;;;;;;;4.50;1.45;;;20.50;99.90;;;;;;5094551;28;20177;-60
2022/07/05 09:34:09;;;;;;;5.63;1.20;;;20.70;99.90;;;;;;5094234;28;20253;-59
2022/07/05 09:36:57;;;;;;;6.38;1.33;;;20.70;99.90;;;;;;5094729;28;20176;-62
2022/07/05 09:39:29;;;;;;;6.72;1.42;;;20.80;99.90;;;;;;5094602;28;20179;-62
2022/07/05 09:42:26;;;;;;;4.43;1.35;;;20.80;99.90;;;;;;5094440;28;20622;-60
2022/07/05 09:44:56;;;;;;;7.65;1.20;;;21.00;99.90;;;;;;5094400;28;20164;-61
2022/07/05 09:47:24;;;;;;;4.03;1.45;;;21.10;99.90;;;;;;5094298;28;20261;-61
2022/07/05 09:49:52;;;;;;;8.20;1.60;;;21.40;99.90;;;;;;5094508;28;20176;-61
2022/07/05 09:52:28;;;;;;;6.38;1.80;;;21.50;99.90;;;;;;5094356;28;20525;-61
2022/07/05 09:55:19;;;;;;;5.10;1.65;;;21.00;99.90;;;;;;5094090;28;20214;-61
2022/07/05 09:57:50;;;;;;;5.95;1.65;;;21.40;99.90;;;;;;5094049;28;20167;-60
2022/07/05 10:00:22;;;;;;;5.03;1.33;;;21.40;99.90;;;;;;5094060;28;20643;-61
2022/07/05 10:02:50;;;;;;;6.53;1.30;;;21.10;99.90;;;;;;5094011;28;20168;-61
2022/07/05 10:05:22;;;;;;;6.50;1.23;;;21.10;99.90;;;;;;5093966;28;20211;-61
2022/07/05 10:07:50;;;;;;;4.90;1.42;;;21.30;99.90;;;;;;5093944;28;20168;-61
2022/07/05 10:10:21;;;;;;;6.72;1.73;;;21.30;99.90;;;;;;5094087;28;20166;-61
2022/07/05 10:12:49;;;;;;;7.57;1.67;;;21.30;99.90;;;;;;5093880;28;20615;-61
2022/07/05 10:15:21;;;;;;;11.00;1.88;;;19.70;99.90;;;;;;5093794;28;20183;-61
2022/07/05 10:17:55;;;;;;;8.32;1.75;;;20.20;99.90;;;;;;5093745;28;20240;-61
2022/07/05 10:20:37;;;;;;;7.55;1.48;;;20.10;99.90;;;;;;5093709;28;20171;-61
2022/07/05 10:23:05;;;;;;;5.40;1.23;;;20.20;99.90;;;;;;5093848;28;20175;-61
2022/07/05 10:25:31;;;;;;;7.88;1.30;;;19.90;99.90;;;;;;5093735;28;20178;-61
2022/07/05 10:27:58;;;;;;;7.97;1.80;;;19.80;99.90;;;;;;5093301;28;20179;-61
2022/07/05 10:30:25;;;;;;;4.80;1.60;;;19.60;99.90;;;;;;5092357;28;20250;-61
2022/07/05 10:32:52;;;;;;;7.28;1.52;;;20.00;99.90;;;;;;5091905;28;20211;-61
2022/07/05 10:35:18;;;;;;;5.18;1.50;;;19.90;99.90;;;;;;5093200;28;20223;-61
2022/07/05 10:37:45;;;;;;;5.35;1.50;;;20.20;99.90;;;;;;5093438;28;20164;-61
2022/07/05 10:40:11;;;;;;;4.40;1.55;;;20.60;99.90;;;;;;5093271;28;20176;-61
2022/07/05 10:42:45;;;;;;;5.93;1.40;;;21.00;99.90;;;;;;5093305;28;20175;-61
2022/07/05 10:45:33;;;;;;;10.13;1.90;;;21.10;99.90;;;;;;5093324;28;20171;-61
2022/07/05 10:48:17;;;;;;;8.55;1.70;;;20.80;99.90;;;;;;5093528;28;20586;-62
2022/07/05 10:50:50;;;;;;;5.50;1.40;;;20.90;99.90;;;;;;5093306;28;20190;-62
2022/07/05 10:53:22;;;;;;;6.45;1.52;;;22.40;99.90;;;;;;5093357;28;20191;-61
2022/07/05 10:55:49;;;;;;;8.13;1.80;;;21.80;99.90;;;;;;5093049;28;20175;-61
2022/07/05 10:58:36;;;;;;;7.97;1.83;;;21.90;99.90;;;;;;5092721;28;20164;-61
2022/07/05 11:01:25;;;;;;;10.85;1.90;;;21.90;99.90;;;;;;5092736;28;20171;-61
2022/07/05 11:04:02;;;;;;;11.68;2.22;;;22.10;99.90;;;;;;5089658;28;20226;-62
2022/07/05 11:06:30;;;;;;;7.70;2.28;;;21.50;99.90;;;;;;5092949;28;20191;-61
2022/07/05 11:08:59;;;;;;;7.40;2.20;;;21.20;99.90;;;;;;5092851;28;20194;-61
2022/07/05 11:11:29;;;;;;;10.35;2.67;;;20.80;99.90;;;;;;5092804;28;20199;-62
2022/07/05 11:13:58;;;;;;;8.23;2.35;;;20.60;99.90;;;;;;5092486;28;20199;-61
2022/07/05 11:16:27;;;;;;;11.23;2.53;;;20.60;99.90;;;;;;5092645;28;20218;-60
2022/07/05 11:19:07;;;;;;;13.73;2.50;;;20.70;99.90;;;;;;5092459;28;20179;-60
2022/07/05 11:21:33;;;;;;;11.55;2.75;;;20.90;99.90;;;;;;5092534;28;20225;-61
2022/07/05 11:24:21;;;;;;;7.30;2.22;;;20.90;99.90;;;;;;5093151;28;20167;-62
2022/07/05 11:26:54;;;;;;;11.23;2.53;;;21.10;99.90;;;;;;5092497;28;20176;-62
2022/07/05 11:29:42;;;;;;;11.52;2.33;;;21.00;99.90;;;;;;5092420;28;20635;-62
2022/07/05 11:32:16;;;;;;;8.35;2.22;;;22.00;99.90;;;;;;5092317;28;20167;-62
2022/07/05 11:34:44;;;;;;;7.22;2.40;;;22.50;99.90;;;;;;5091901;28;20590;-62
2022/07/05 11:37:24;;;;;;;7.88;2.35;;;22.10;99.90;;;;;;5092170;28;20665;-62
2022/07/05 11:40:10;;;;;;;10.60;2.60;;;22.40;99.90;;;;;;5091578;28;20316;-62
2022/07/05 11:42:56;;;;;;;9.00;2.03;;;22.60;99.90;;;;;;5092248;28;20209;-60
2022/07/05 11:45:25;;;;;;;10.38;2.05;;;22.70;99.90;;;;;;5091898;28;20236;-61
2022/07/05 11:47:53;;;;;;;9.60;2.22;;;22.80;99.90;;;;;;5092031;28;20170;-61
2022/07/05 11:50:26;;;;;;;10.75;2.38;;;23.10;99.90;;;;;;5092113;28;20170;-61
2022/07/05 11:52:52;;;;;;;8.43;2.20;;;22.70;99.90;;;;;;5091914;28;20168;-61
2022/07/05 11:55:19;;;;;;;9.70;2.13;;;23.30;99.90;;;;;;5092034;28;20194;-61
2022/07/05 11:57:52;;;;;;;12.63;1.85;;;23.40;99.90;;;;;;5091800;28;20168;-61
2022/07/05 12:00:28;;;;;;;12.43;1.92;;;23.70;99.90;;;;;;5091846;28;20178;-61
2022/07/05 12:02:54;;;;;;;8.70;2.00;;;23.70;99.90;;;;;;5092141;28;20175;-61
2022/07/05 12:05:20;;;;;;;12.07;2.47;;;23.60;99.90;;;;;;5091605;28;20654;-61
2022/07/05 12:07:50;;;;;;;5.15;1.73;;;23.10;99.90;;;;;;5091742;28;20174;-61
2022/07/05 12:13:08;;;;;;;8.90;2.08;;;22.50;99.90;;;;;;5091783;28;20649;-63
2022/07/05 12:15:35;;;;;;;7.10;1.75;;;22.60;99.90;;;;;;5091621;28;20160;-61
2022/07/05 12:18:06;;;;;;;10.25;2.20;;;22.00;99.90;;;;;;5091590;28;20203;-61
2022/07/05 12:20:34;;;;;;;12.50;2.30;;;21.40;99.90;;;;;;5091504;28;20175;-61
2022/07/05 12:23:00;;;;;;;15.95;2.38;;;20.90;99.90;;;;;;5091331;28;20171;-61
2022/07/05 12:25:28;;;;;;;16.02;2.75;;;20.90;99.90;;;;;;5091320;28;20619;-60
2022/07/05 12:27:56;;;;;;;6.05;1.85;;;20.80;99.90;;;;;;5091342;28;20259;-60
2022/07/05 12:30:22;;;;;;;8.43;2.22;;;20.60;99.90;;;;;;5091283;28;20238;-60
2022/07/05 12:32:59;;;;;;;11.07;2.50;;;20.50;99.90;;;;;;5091145;28;20174;-60
2022/07/05 12:35:40;;;;;;;8.98;2.30;;;20.50;99.90;;;;;;5090977;28;20230;-60
2022/07/05 12:38:20;;;;;;;7.65;2.03;;;20.70;99.90;;;;;;5091354;28;20179;-60
2022/07/05 12:40:48;;;;;;;7.80;2.00;;;20.90;99.90;;;;;;5091082;28;20657;-60
2022/07/05 12:43:15;;;;;;;6.70;1.83;;;20.80;99.90;;;;;;5091122;28;20641;-60
2022/07/05 12:45:43;;;;;;;12.73;1.92;;;21.00;99.90;;;;;;5091067;28;20168;-60
2022/07/05 12:48:11;;;;;;;11.68;2.40;;;20.90;99.90;;;;;;5090997;28;20171;-60
2022/07/05 12:50:49;;;;;;;12.15;2.15;;;21.00;99.90;;;;;;5090931;28;20176;-60
2022/07/05 12:59:03;;;;;;;8.82;1.35;;;21.10;99.90;;;;;;5091131;28;20221;-60
2022/07/05 13:01:34;;;;;;;7.30;2.03;;;21.50;99.90;;;;;;5090832;28;20167;-60